createdAt,value
2019-06-07T00:01:21.172Z,10.93
2019-06-07T00:03:51.857Z,11.05
2019-06-07T00:06:25.629Z,9.95
2019-06-07T00:08:53.113Z,10.70
2019-06-07T00:11:22.792Z,10.20
2019-06-07T00:13:52.390Z,10.63
2019-06-07T00:18:57.225Z,11.18
2019-06-07T00:22:12.898Z,9.68
2019-06-07T00:23:58.143Z,10.18
2019-06-07T00:26:27.895Z,10.13
2019-06-07T00:28:57.548Z,10.53
2019-06-07T00:31:27.277Z,10.45
2019-06-07T00:33:57.003Z,10.53
2019-06-07T00:36:26.671Z,10.95
2019-06-07T00:38:56.223Z,11.28
2019-06-07T00:41:26.101Z,11.33
2019-06-07T00:43:55.747Z,11.68
2019-06-07T00:46:25.553Z,10.88
2019-06-07T00:48:55.762Z,11.65
2019-06-07T00:51:25.573Z,10.45
2019-06-07T00:53:55.264Z,11.05
2019-06-07T00:56:25.288Z,11.40
2019-06-07T00:59:10.916Z,11.63
2019-06-07T01:01:26.322Z,11.30
2019-06-07T01:03:56.249Z,11.35
2019-06-07T01:06:25.893Z,12.20
2019-06-07T01:08:55.563Z,11.18
2019-06-07T01:11:26.160Z,12.35
2019-06-07T01:13:55.960Z,11.45
2019-06-07T01:16:26.410Z,11.12
2019-06-07T01:18:56.308Z,11.30
2019-06-07T01:21:29.705Z,11.30
2019-06-07T01:24:11.639Z,10.48
2019-06-07T01:26:30.252Z,11.33
2019-06-07T01:29:00.264Z,10.95
2019-06-07T01:31:31.482Z,10.68
2019-06-07T01:34:01.283Z,11.10
2019-06-07T01:36:31.290Z,11.90
2019-06-07T01:39:01.005Z,10.35
2019-06-07T01:41:31.011Z,11.28
2019-06-07T01:44:00.691Z,12.28
2019-06-07T01:46:30.943Z,11.28
2019-06-07T01:49:00.700Z,11.08
2019-06-07T01:51:30.709Z,11.73
2019-06-07T01:54:48.560Z,11.40
2019-06-07T01:56:32.538Z,11.90
2019-06-07T01:59:02.256Z,11.57
2019-06-07T02:01:35.215Z,11.85
2019-06-07T02:04:03.574Z,11.53
2019-06-07T02:06:33.911Z,10.90
2019-06-07T02:09:04.532Z,12.23
2019-06-07T02:11:34.542Z,12.10
2019-06-07T02:14:07.843Z,11.22
2019-06-07T02:16:37.479Z,12.07
2019-06-07T02:19:07.451Z,10.65
2019-06-07T02:21:37.469Z,12.50
2019-06-07T02:24:07.182Z,11.93
2019-06-07T02:26:36.814Z,11.97
2019-06-07T02:29:06.619Z,12.45
2019-06-07T02:31:39.614Z,13.10
2019-06-07T02:34:07.710Z,12.13
2019-06-07T02:36:41.506Z,11.18
2019-06-07T02:39:09.052Z,12.73
2019-06-07T02:41:40.459Z,12.45
2019-06-07T02:44:10.385Z,12.07
2019-06-07T02:46:49.133Z,13.38
2019-06-07T02:49:11.545Z,13.88
2019-06-07T02:51:42.136Z,13.28
2019-06-07T02:54:12.010Z,12.80
2019-06-07T02:56:56.273Z,15.25
2019-06-07T02:59:12.945Z,14.90
2019-06-07T03:01:42.920Z,15.03
2019-06-07T03:04:14.577Z,13.13
2019-06-07T03:06:45.566Z,12.82
2019-06-07T03:09:15.228Z,13.00
2019-06-07T03:11:46.818Z,12.65
2019-06-07T03:14:19.617Z,12.20
2019-06-07T03:16:52.330Z,11.80
2019-06-07T03:19:26.395Z,12.03
2019-06-07T03:21:56.167Z,12.47
2019-06-07T03:24:29.596Z,11.78
2019-06-07T03:29:30.406Z,12.15
2019-06-07T03:32:00.687Z,11.55
2019-06-07T03:34:34.245Z,11.65
2019-06-07T03:37:01.734Z,10.90
2019-06-07T03:39:31.502Z,11.55
2019-06-07T03:42:06.247Z,11.95
2019-06-07T03:44:35.860Z,11.35
2019-06-07T03:47:04.463Z,11.63
2019-06-07T03:49:36.487Z,11.83
2019-06-07T03:52:05.586Z,11.03
2019-06-07T03:54:38.446Z,12.82
2019-06-07T03:57:06.672Z,12.35
2019-06-07T03:59:39.576Z,12.18
2019-06-07T04:02:07.830Z,12.35
2019-06-07T04:04:38.564Z,13.03
2019-06-07T04:07:08.706Z,12.35
2019-06-07T04:09:42.068Z,11.75
2019-06-07T04:12:10.576Z,11.83
2019-06-07T04:14:42.494Z,11.60
2019-06-07T04:17:11.801Z,12.53
2019-06-07T04:19:43.307Z,12.60
2019-06-07T04:22:12.771Z,13.00
2019-06-07T04:24:42.560Z,13.20
2019-06-07T04:27:12.308Z,12.63
2019-06-07T04:30:05.837Z,13.65
2019-06-07T04:32:13.577Z,15.23
2019-06-07T04:34:43.467Z,13.95
2019-06-07T04:37:14.170Z,12.85
2019-06-07T04:39:45.415Z,13.20
2019-06-07T04:42:18.114Z,12.78
2019-06-07T04:44:48.749Z,12.70
2019-06-07T04:47:20.526Z,13.08
2019-06-07T04:49:51.816Z,12.37
2019-06-07T04:52:21.738Z,26.02
2019-06-07T04:54:51.593Z,17.20
2019-06-07T04:57:21.397Z,15.08
2019-06-07T05:00:12.240Z,14.30
2019-06-07T05:02:22.691Z,15.50
2019-06-07T05:04:52.388Z,13.80
2019-06-07T05:07:22.159Z,13.08
2019-06-07T05:09:52.611Z,14.18
2019-06-07T05:12:22.330Z,13.90
2019-06-07T05:14:52.227Z,13.88
2019-06-07T05:17:23.156Z,13.68
2019-06-07T05:19:53.916Z,14.45
2019-06-07T05:22:24.528Z,18.45
2019-06-07T05:24:54.546Z,15.60
2019-06-07T05:27:24.446Z,15.65
2019-06-07T05:30:13.161Z,17.92
2019-06-07T05:32:29.086Z,17.42
2019-06-07T05:35:00.319Z,14.73
2019-06-07T05:37:33.536Z,15.10
2019-06-07T05:40:03.668Z,15.90
2019-06-07T05:42:40.216Z,17.12
2019-06-07T05:45:08.613Z,17.92
2019-06-07T05:47:44.379Z,17.15
2019-06-07T05:50:38.071Z,16.95
2019-06-07T05:52:46.801Z,16.67
2019-06-07T05:55:14.200Z,17.73
2019-06-07T05:57:49.165Z,18.82
2019-06-07T06:00:15.414Z,17.35
2019-06-07T06:03:04.193Z,18.20
2019-06-07T06:05:32.675Z,18.50
2019-06-07T06:07:50.905Z,17.42
2019-06-07T06:10:19.994Z,18.75
2019-06-07T06:12:51.881Z,18.17
2019-06-07T06:15:41.539Z,19.25
2019-06-07T06:18:54.755Z,19.57
2019-06-07T06:21:24.970Z,20.45
2019-06-07T06:23:54.987Z,21.80
2019-06-07T06:26:24.742Z,20.37
2019-06-07T06:28:54.821Z,19.60
2019-06-07T06:31:24.672Z,20.40
2019-06-07T06:33:56.289Z,19.35
2019-06-07T06:36:26.031Z,20.92
2019-06-07T06:38:57.894Z,20.70
2019-06-07T06:41:27.526Z,20.05
2019-06-07T06:43:57.968Z,23.25
2019-06-07T06:46:38.630Z,22.77
2019-06-07T06:48:59.619Z,20.68
2019-06-07T06:51:29.660Z,21.65
2019-06-07T06:53:59.620Z,23.02
2019-06-07T06:56:29.392Z,23.50
2019-06-07T06:59:34.124Z,26.33
2019-06-07T07:01:30.832Z,26.48
2019-06-07T07:04:12.445Z,29.48
2019-06-07T07:06:33.170Z,27.25
2019-06-07T07:09:03.497Z,28.35
2019-06-07T07:11:33.247Z,29.63
2019-06-07T07:14:03.154Z,29.40
2019-06-07T07:16:33.597Z,29.23
2019-06-07T07:19:03.148Z,30.85
2019-06-07T07:21:32.741Z,29.05
2019-06-07T07:24:20.572Z,27.60
2019-06-07T07:26:33.706Z,29.87
2019-06-07T07:29:03.500Z,27.37
2019-06-07T07:31:33.135Z,29.52
2019-06-07T07:36:39.230Z,29.10
2019-06-07T07:39:07.477Z,27.73
2019-06-07T07:41:37.256Z,29.30
2019-06-07T07:44:07.991Z,27.13
2019-06-07T07:46:38.520Z,28.52
2019-06-07T07:49:08.077Z,27.30
2019-06-07T07:51:37.673Z,28.60
2019-06-07T07:54:10.545Z,27.98
2019-06-07T07:56:39.244Z,26.23
2019-06-07T07:59:09.361Z,26.45
2019-06-07T08:01:39.157Z,26.25
2019-06-07T08:04:08.973Z,27.25
2019-06-07T08:06:38.926Z,27.45
2019-06-07T08:09:09.574Z,27.62
2019-06-07T08:11:39.241Z,28.23
2019-06-07T08:14:09.105Z,28.00
2019-06-07T08:16:39.067Z,26.65
2019-06-07T08:19:09.861Z,27.25
2019-06-07T08:21:39.702Z,24.37
2019-06-07T08:24:09.460Z,25.52
2019-06-07T08:26:39.192Z,21.57
2019-06-07T08:29:08.954Z,24.57
2019-06-07T08:31:38.693Z,25.15
2019-06-07T08:34:08.389Z,25.08
2019-06-07T08:36:42.386Z,24.32
2019-06-07T08:39:10.232Z,25.17
2019-06-07T08:41:53.705Z,26.68
2019-06-07T08:44:23.307Z,25.95
2019-06-07T08:46:42.535Z,24.27
2019-06-07T08:49:12.171Z,25.62
2019-06-07T08:51:41.921Z,23.60
2019-06-07T08:54:22.177Z,23.42
2019-06-07T08:56:43.717Z,24.85
2019-06-07T08:59:13.629Z,23.73
2019-06-07T09:01:43.263Z,23.92
2019-06-07T09:04:12.902Z,21.93
2019-06-07T09:09:14.389Z,22.45
2019-06-07T09:11:44.135Z,22.98
2019-06-07T09:14:13.795Z,23.32
2019-06-07T09:16:43.500Z,24.63
2019-06-07T09:19:13.123Z,24.95
2019-06-07T09:21:42.864Z,24.25
2019-06-07T09:24:12.472Z,24.80
2019-06-07T09:26:42.030Z,24.45
2019-06-07T09:29:12.692Z,22.58
2019-06-07T09:31:52.428Z,23.90
2019-06-07T09:34:15.290Z,24.85
2019-06-07T09:36:45.057Z,24.98
2019-06-07T09:39:14.847Z,24.32
2019-06-07T09:41:49.493Z,24.23
2019-06-07T09:44:24.598Z,22.70
2019-06-07T09:46:47.307Z,24.25
2019-06-07T09:49:30.573Z,25.72
2019-06-07T09:51:48.461Z,25.02
2019-06-07T09:56:49.994Z,42.98
2019-06-07T09:59:19.669Z,25.48
2019-06-07T10:01:49.614Z,22.90
2019-06-07T10:04:30.747Z,25.82
2019-06-07T10:06:50.978Z,26.95
2019-06-07T10:11:52.342Z,25.52
2019-06-07T10:14:22.092Z,25.12
2019-06-07T10:16:51.778Z,23.83
2019-06-07T10:19:21.571Z,25.02
2019-06-07T10:21:51.380Z,23.42
2019-06-07T10:24:20.936Z,25.35
2019-06-07T10:26:50.629Z,22.00
2019-06-07T10:29:20.242Z,24.65
2019-06-07T10:31:50.028Z,22.07
2019-06-07T10:34:19.727Z,22.77
2019-06-07T10:36:49.402Z,22.02
2019-06-07T10:39:19.093Z,22.07
2019-06-07T10:41:49.048Z,21.12
2019-06-07T10:44:18.728Z,21.50
2019-06-07T10:46:48.319Z,23.62
2019-06-07T10:49:18.028Z,23.32
2019-06-07T10:51:47.615Z,21.05
2019-06-07T10:54:27.944Z,20.72
2019-06-07T10:56:48.635Z,19.60
2019-06-07T10:59:18.252Z,19.10
2019-06-07T11:01:47.877Z,21.15
2019-06-07T11:04:17.501Z,21.82
2019-06-07T11:06:47.247Z,20.05
2019-06-07T11:09:16.936Z,19.82
2019-06-07T11:11:46.576Z,17.23
2019-06-07T11:14:16.189Z,14.98
2019-06-07T11:16:45.874Z,16.12
2019-06-07T11:19:17.778Z,16.57
2019-06-07T11:21:46.924Z,17.15
2019-06-07T11:24:24.269Z,17.48
2019-06-07T11:26:49.725Z,19.35
2019-06-07T11:29:19.397Z,18.25
2019-06-07T11:31:48.960Z,18.62
2019-06-07T11:34:18.913Z,17.98
2019-06-07T11:36:51.086Z,18.15
2019-06-07T11:39:20.221Z,16.35
2019-06-07T11:41:50.000Z,20.37
2019-06-07T11:44:19.748Z,16.30
2019-06-07T11:46:49.380Z,15.63
2019-06-07T11:49:20.283Z,18.42
2019-06-07T11:51:50.367Z,18.02
2019-06-07T11:54:20.547Z,18.70
2019-06-07T11:56:50.291Z,16.35
2019-06-07T11:59:20.028Z,17.85
2019-06-07T12:01:49.606Z,19.73
2019-06-07T12:04:32.513Z,18.10
2019-06-07T12:06:50.714Z,17.48
2019-06-07T12:09:20.384Z,18.50
2019-06-07T12:11:49.931Z,17.75
2019-06-07T12:14:19.514Z,17.37
2019-06-07T12:16:49.091Z,14.80
2019-06-07T12:19:19.763Z,16.73
2019-06-07T12:21:49.741Z,18.37
2019-06-07T12:24:21.159Z,17.98
2019-06-07T12:26:51.842Z,16.70
2019-06-07T12:29:21.603Z,14.90
2019-06-07T12:31:51.667Z,13.75
2019-06-07T12:34:21.664Z,14.85
2019-06-07T12:36:51.703Z,16.27
2019-06-07T12:39:22.246Z,16.37
2019-06-07T12:41:51.970Z,16.82
2019-06-07T12:44:22.845Z,16.45
2019-06-07T12:46:53.048Z,15.98
2019-06-07T12:49:23.572Z,15.48
2019-06-07T12:51:53.581Z,16.40
2019-06-07T12:54:23.869Z,16.40
2019-06-07T12:56:53.783Z,25.48
2019-06-07T12:59:24.466Z,16.20
2019-06-07T13:01:54.131Z,15.83
2019-06-07T13:04:24.967Z,15.63
2019-06-07T13:06:54.904Z,15.48
2019-06-07T13:09:24.613Z,15.60
2019-06-07T13:11:54.553Z,17.95
2019-06-07T13:14:24.346Z,15.25
2019-06-07T13:16:54.024Z,16.50
2019-06-07T13:19:24.357Z,16.95
2019-06-07T13:21:54.126Z,17.15
2019-06-07T13:24:25.158Z,17.00
2019-06-07T13:26:54.953Z,22.75
2019-06-07T13:29:25.145Z,16.15
2019-06-07T13:31:56.143Z,16.85
2019-06-07T13:34:25.979Z,16.25
2019-06-07T13:36:55.770Z,16.48
2019-06-07T13:39:27.605Z,16.15
2019-06-07T13:41:56.987Z,17.70
2019-06-07T13:44:26.837Z,20.97
2019-06-07T13:46:57.630Z,16.17
2019-06-07T13:49:27.952Z,16.23
2019-06-07T13:51:58.035Z,16.95
2019-06-07T13:54:27.922Z,14.87
2019-06-07T13:57:02.739Z,16.15
2019-06-07T13:59:29.352Z,15.28
2019-06-07T14:02:00.887Z,16.37
2019-06-07T14:04:31.822Z,15.53
2019-06-07T14:07:01.640Z,14.25
2019-06-07T14:09:31.468Z,14.68
2019-06-07T14:12:01.289Z,13.55
2019-06-07T14:14:31.065Z,13.20
2019-06-07T14:17:01.766Z,14.68
2019-06-07T14:19:31.525Z,14.43
2019-06-07T14:22:02.054Z,14.33
2019-06-07T14:24:31.783Z,14.03
2019-06-07T14:27:07.963Z,13.65
2019-06-07T14:29:41.211Z,13.05
2019-06-07T14:32:11.146Z,13.78
2019-06-07T14:34:41.129Z,14.05
2019-06-07T14:37:11.148Z,13.70
2019-06-07T14:39:41.269Z,14.63
2019-06-07T14:42:11.492Z,13.60
2019-06-07T14:44:41.353Z,12.95
2019-06-07T14:47:11.084Z,13.10
2019-06-07T14:49:40.828Z,13.15
2019-06-07T14:52:10.457Z,13.50
2019-06-07T14:54:40.128Z,13.00
2019-06-07T14:57:09.822Z,13.70
2019-06-07T14:59:39.475Z,12.98
2019-06-07T15:02:09.320Z,14.10
2019-06-07T15:04:42.643Z,13.93
2019-06-07T15:07:14.934Z,13.83
2019-06-07T15:09:44.765Z,13.40
2019-06-07T15:12:24.635Z,14.10
2019-06-07T15:14:46.195Z,13.60
2019-06-07T15:17:15.853Z,12.93
2019-06-07T15:19:45.589Z,12.80
2019-06-07T15:22:15.444Z,12.43
2019-06-07T15:24:45.180Z,13.78
2019-06-07T15:27:15.430Z,13.25
2019-06-07T15:29:45.143Z,12.55
2019-06-07T15:32:15.946Z,13.18
2019-06-07T15:34:45.691Z,12.73
2019-06-07T15:37:15.760Z,12.43
2019-06-07T15:39:45.541Z,12.80
2019-06-07T15:42:15.383Z,14.23
2019-06-07T15:44:45.033Z,14.98
2019-06-07T15:47:14.677Z,13.88
2019-06-07T15:49:44.668Z,13.48
2019-06-07T15:52:14.305Z,14.05
2019-06-07T15:54:44.039Z,13.58
2019-06-07T15:57:13.922Z,13.55
2019-06-07T15:59:43.628Z,12.95
2019-06-07T16:02:13.490Z,12.63
2019-06-07T16:04:43.174Z,13.10
2019-06-07T16:07:12.827Z,11.90
2019-06-07T16:09:42.861Z,12.98
2019-06-07T16:12:12.750Z,12.73
2019-06-07T16:14:43.469Z,13.03
2019-06-07T16:17:13.722Z,12.68
2019-06-07T16:19:46.532Z,12.03
2019-06-07T16:22:15.254Z,12.70
2019-06-07T16:24:44.963Z,13.43
2019-06-07T16:27:14.718Z,12.50
2019-06-07T16:29:44.877Z,13.43
2019-06-07T16:32:14.716Z,12.80
2019-06-07T16:34:46.056Z,13.45
2019-06-07T16:37:16.842Z,12.60
2019-06-07T16:39:46.781Z,13.15
2019-06-07T16:42:16.613Z,12.03
2019-06-07T16:44:47.057Z,11.97
2019-06-07T16:47:16.674Z,13.18
2019-06-07T16:49:46.702Z,13.05
2019-06-07T16:52:16.439Z,12.35
2019-06-07T16:54:47.602Z,13.83
2019-06-07T16:57:17.868Z,12.43
2019-06-07T16:59:50.493Z,12.88
2019-06-07T17:02:20.391Z,14.65
2019-06-07T17:04:50.380Z,13.55
2019-06-07T17:07:20.282Z,13.93
2019-06-07T17:09:50.175Z,13.43
2019-06-07T17:12:21.030Z,14.93
2019-06-07T17:14:51.138Z,14.10
2019-06-07T17:17:21.427Z,14.00
2019-06-07T17:19:51.331Z,14.10
2019-06-07T17:22:20.974Z,13.62
2019-06-07T17:24:50.844Z,14.33
2019-06-07T17:27:20.675Z,14.85
2019-06-07T17:29:50.300Z,13.55
2019-06-07T17:32:20.171Z,13.43
2019-06-07T17:34:51.181Z,14.38
2019-06-07T17:37:21.196Z,13.98
2019-06-07T17:39:51.180Z,14.05
2019-06-07T17:42:21.669Z,14.23
2019-06-07T17:44:51.617Z,14.20
2019-06-07T17:47:21.412Z,13.58
2019-06-07T17:49:52.155Z,15.05
2019-06-07T17:52:22.521Z,16.52
2019-06-07T17:54:52.474Z,16.32
2019-06-07T17:57:22.794Z,16.82
2019-06-07T17:59:54.404Z,16.35
2019-06-07T18:02:24.266Z,15.90
2019-06-07T18:04:54.646Z,17.27
2019-06-07T18:07:26.917Z,14.55
2019-06-07T18:09:57.364Z,14.13
2019-06-07T18:12:27.596Z,14.58
2019-06-07T18:14:57.454Z,14.90
2019-06-07T18:17:34.454Z,14.50
2019-06-07T18:19:59.527Z,15.38
2019-06-07T18:22:29.681Z,13.95
2019-06-07T18:24:59.473Z,14.68
2019-06-07T18:27:29.802Z,13.60
2019-06-07T18:29:59.668Z,13.75
2019-06-07T18:32:29.527Z,13.55
2019-06-07T18:35:00.452Z,15.15
2019-06-07T18:37:31.668Z,14.60
2019-06-07T18:40:01.479Z,15.45
2019-06-07T18:42:32.068Z,13.83
2019-06-07T18:45:09.483Z,16.50
2019-06-07T18:47:42.104Z,15.85
2019-06-07T18:50:15.379Z,15.20
2019-06-07T18:52:48.562Z,15.72
2019-06-07T18:55:22.095Z,14.78
2019-06-07T18:57:52.261Z,14.68
2019-06-07T19:00:24.299Z,14.68
2019-06-07T19:02:56.101Z,15.85
2019-06-07T19:05:27.086Z,14.65
2019-06-07T19:07:59.873Z,16.48
2019-06-07T19:10:31.737Z,15.90
2019-06-07T19:13:01.843Z,16.25
2019-06-07T19:15:34.060Z,17.17
2019-06-07T19:18:04.010Z,18.75
2019-06-07T19:20:33.666Z,17.45
2019-06-07T19:23:03.421Z,16.77
2019-06-07T19:25:33.132Z,17.23
2019-06-07T19:28:02.789Z,18.02
2019-06-07T19:30:32.458Z,17.95
2019-06-07T19:33:02.393Z,17.85
2019-06-07T19:35:32.086Z,18.48
2019-06-07T19:38:02.097Z,45.17
2019-06-07T19:40:32.076Z,20.80
2019-06-07T19:43:03.869Z,18.57
2019-06-07T19:45:35.166Z,19.52
2019-06-07T19:48:05.550Z,20.12
2019-06-07T19:50:35.531Z,19.12
2019-06-07T19:53:05.620Z,20.80
2019-06-07T19:55:36.509Z,19.67
2019-06-07T19:58:06.420Z,21.68
2019-06-07T20:00:36.359Z,20.88
2019-06-07T20:03:07.147Z,22.25
2019-06-07T20:05:36.824Z,21.05
2019-06-07T20:08:06.571Z,22.15
2019-06-07T20:10:37.132Z,22.37
2019-06-07T20:13:06.901Z,23.92
2019-06-07T20:15:37.399Z,23.47
2019-06-07T20:18:07.814Z,23.22
2019-06-07T20:20:37.438Z,20.57
2019-06-07T20:23:07.493Z,19.98
2019-06-07T20:25:37.227Z,21.00
2019-06-07T20:28:07.047Z,23.42
2019-06-07T20:30:36.898Z,21.25
2019-06-07T20:33:08.184Z,19.95
2019-06-07T20:35:38.240Z,19.20
2019-06-07T20:38:09.418Z,20.12
2019-06-07T20:40:39.363Z,19.25
2019-06-07T20:43:09.401Z,18.95
2019-06-07T20:45:39.468Z,19.42
2019-06-07T20:48:09.150Z,20.10
2019-06-07T20:50:38.829Z,20.25
2019-06-07T20:53:09.483Z,21.10
2019-06-07T20:55:39.382Z,21.65
2019-06-07T20:58:09.498Z,19.95
2019-06-07T21:00:39.411Z,22.13
2019-06-07T21:03:09.673Z,19.77
2019-06-07T21:05:39.469Z,21.05
2019-06-07T21:08:12.687Z,19.05
2019-06-07T21:10:40.403Z,20.37
2019-06-07T21:13:10.272Z,20.50
2019-06-07T21:15:48.982Z,19.95
2019-06-07T21:18:19.357Z,22.40
2019-06-07T21:20:45.071Z,20.88
2019-06-07T21:23:14.793Z,19.75
2019-06-07T21:25:44.933Z,20.77
2019-06-07T21:28:15.577Z,19.27
2019-06-07T21:30:45.548Z,18.90
2019-06-07T21:33:15.271Z,18.65
2019-06-07T21:35:44.968Z,18.37
2019-06-07T21:38:14.630Z,19.87
2019-06-07T21:40:44.695Z,19.82
2019-06-07T21:43:15.435Z,17.95
2019-06-07T21:45:45.140Z,19.40
2019-06-07T21:48:14.893Z,20.70
2019-06-07T21:50:45.745Z,20.88
2019-06-07T21:53:16.407Z,19.85
2019-06-07T21:55:46.243Z,19.60
2019-06-07T21:58:16.278Z,19.87
2019-06-07T22:01:04.701Z,19.57
2019-06-07T22:06:07.632Z,20.35
2019-06-07T22:08:38.915Z,19.00
2019-06-07T22:11:10.254Z,20.77
2019-06-07T22:13:40.085Z,21.27
2019-06-07T22:16:23.350Z,19.40
2019-06-07T22:18:41.221Z,18.92
2019-06-07T22:21:10.872Z,19.20
2019-06-07T22:23:43.548Z,18.82
2019-06-07T22:26:13.265Z,19.55
2019-06-07T22:28:43.126Z,19.70
2019-06-07T22:31:12.860Z,20.90
2019-06-07T22:33:42.620Z,21.65
2019-06-07T22:36:13.226Z,22.40
2019-06-07T22:38:43.138Z,22.48
2019-06-07T22:41:13.982Z,20.30
2019-06-07T22:43:43.780Z,24.25
2019-06-07T22:46:13.526Z,23.30
2019-06-07T22:48:43.233Z,20.50
2019-06-07T22:51:14.520Z,19.15
2019-06-07T22:53:44.185Z,20.32
2019-06-07T22:56:16.065Z,20.82
2019-06-07T22:58:46.340Z,20.97
2019-06-07T23:01:17.096Z,21.55
2019-06-07T23:03:46.880Z,22.20
2019-06-07T23:06:16.967Z,23.30
2019-06-07T23:08:46.549Z,22.93
2019-06-07T23:11:17.227Z,21.23
2019-06-07T23:13:47.022Z,21.05
2019-06-07T23:16:17.764Z,20.27
2019-06-07T23:18:47.702Z,19.98
2019-06-07T23:21:17.925Z,19.77
2019-06-07T23:23:47.595Z,20.20
2019-06-07T23:26:18.289Z,19.85
2019-06-07T23:28:47.908Z,21.00
2019-06-07T23:31:18.551Z,24.05
2019-06-07T23:33:48.167Z,23.67
2019-06-07T23:36:19.261Z,23.00
2019-06-07T23:38:49.030Z,24.18
2019-06-07T23:41:20.430Z,25.15
2019-06-07T23:43:49.869Z,22.02
2019-06-07T23:46:21.591Z,21.77
2019-06-07T23:48:51.505Z,22.73
2019-06-07T23:51:22.020Z,21.48
2019-06-07T23:53:51.813Z,21.27
2019-06-07T23:56:22.266Z,19.70
2019-06-07T23:58:52.219Z,19.95
